createdAt,value
2019-05-18T00:04:17.734Z,23.20
2019-05-18T00:09:23.800Z,20.92
2019-05-18T00:14:29.768Z,22.37
2019-05-18T00:19:35.738Z,18.40
2019-05-18T00:24:41.579Z,19.30
2019-05-18T00:29:47.846Z,17.77
2019-05-18T00:34:53.859Z,22.87
2019-05-18T00:39:59.830Z,19.23
2019-05-18T00:45:08.893Z,18.07
2019-05-18T00:50:15.385Z,20.08
2019-05-18T00:55:21.426Z,17.67
2019-05-18T01:00:27.403Z,17.05
2019-05-18T01:05:33.778Z,19.75
2019-05-18T01:10:40.260Z,17.77
2019-05-18T01:15:46.232Z,21.37
2019-05-18T01:20:52.919Z,20.12
2019-05-18T01:25:58.745Z,18.50
2019-05-18T01:31:04.659Z,16.90
2019-05-18T01:36:11.961Z,13.93
2019-05-18T01:41:17.858Z,16.85
2019-05-18T01:46:24.004Z,16.10
2019-05-18T01:51:29.973Z,19.92
2019-05-18T01:56:35.944Z,19.32
2019-05-18T02:01:41.914Z,18.10
2019-05-18T02:06:48.322Z,20.57
2019-05-18T02:11:54.268Z,24.60
2019-05-18T02:17:00.341Z,26.07
2019-05-18T02:22:06.618Z,31.65
2019-05-18T02:27:12.591Z,35.10
2019-05-18T02:32:18.563Z,29.87
2019-05-18T02:37:24.636Z,35.88
2019-05-18T02:42:30.944Z,36.93
2019-05-18T02:47:37.198Z,35.33
2019-05-18T02:52:43.268Z,32.17
2019-05-18T02:57:49.570Z,40.15
2019-05-18T03:02:55.415Z,31.93
2019-05-18T03:08:01.485Z,35.70
2019-05-18T03:13:07.700Z,33.42
2019-05-18T03:18:14.145Z,29.20
2019-05-18T03:23:20.216Z,38.30
2019-05-18T03:28:28.236Z,34.15
2019-05-18T03:33:34.114Z,31.48
2019-05-18T03:38:40.077Z,33.48
2019-05-18T03:43:46.050Z,30.32
2019-05-18T03:48:52.033Z,28.05
2019-05-18T03:53:57.988Z,24.52
2019-05-18T03:59:03.967Z,32.33
2019-05-18T04:04:09.829Z,28.30
2019-05-18T04:09:17.027Z,22.33
2019-05-18T04:14:23.003Z,27.13
2019-05-18T04:19:44.875Z,25.40
2019-05-18T04:24:36.584Z,25.20
2019-05-18T04:29:42.657Z,27.35
2019-05-18T04:34:49.972Z,22.27
2019-05-18T04:39:56.337Z,23.50
2019-05-18T04:45:02.321Z,25.72
2019-05-18T04:50:09.638Z,26.47
2019-05-18T04:55:15.782Z,21.87
2019-05-18T05:00:22.064Z,21.85
2019-05-18T05:05:28.038Z,26.52
2019-05-18T05:10:34.014Z,24.23
2019-05-18T05:15:40.183Z,21.77
2019-05-18T05:20:47.510Z,20.62
2019-05-18T05:25:53.470Z,20.85
2019-05-18T05:30:59.734Z,22.50
2019-05-18T05:36:06.065Z,19.07
2019-05-18T05:41:16.517Z,20.77
2019-05-18T05:46:20.078Z,20.60
2019-05-18T05:51:26.079Z,19.65
2019-05-18T05:56:32.083Z,21.70
2019-05-18T06:01:38.427Z,19.67
2019-05-18T06:06:45.050Z,22.85
2019-05-18T06:11:51.081Z,24.00
2019-05-18T06:16:57.975Z,20.85
2019-05-18T06:22:03.959Z,23.67
2019-05-18T06:27:10.030Z,24.75
2019-05-18T06:32:16.095Z,23.35
2019-05-18T06:37:22.073Z,25.23
2019-05-18T06:42:28.278Z,26.02
2019-05-18T06:47:34.238Z,24.02
2019-05-18T06:52:41.449Z,20.67
2019-05-18T06:57:48.386Z,25.00
2019-05-18T07:02:54.286Z,26.60
2019-05-18T07:08:00.280Z,25.90
2019-05-18T07:13:06.522Z,27.10
2019-05-18T07:18:12.494Z,22.82
2019-05-18T07:23:18.574Z,27.55
2019-05-18T07:28:25.057Z,25.10
2019-05-18T07:33:30.917Z,27.13
2019-05-18T07:38:37.200Z,24.70
2019-05-18T07:43:43.168Z,26.25
2019-05-18T07:48:49.136Z,28.75
2019-05-18T07:53:55.107Z,28.35
2019-05-18T07:59:01.080Z,27.00
2019-05-18T08:04:07.178Z,24.63
2019-05-18T08:09:13.376Z,26.70
2019-05-18T08:14:19.300Z,28.55
2019-05-18T08:19:25.273Z,30.75
2019-05-18T08:24:31.241Z,29.82
2019-05-18T08:29:39.160Z,32.58
2019-05-18T08:34:45.334Z,35.43
2019-05-18T08:39:51.436Z,35.38
2019-05-18T08:44:57.425Z,36.93
2019-05-18T08:50:03.553Z,40.88
2019-05-18T08:55:10.247Z,14.20
2019-05-18T09:00:17.034Z,42.45
2019-05-18T09:05:23.523Z,16.25
2019-05-18T09:10:29.588Z,24.95
2019-05-18T09:15:35.556Z,10.30
2019-05-18T09:20:41.841Z,10.23
2019-05-18T09:25:47.981Z,8.73
2019-05-18T09:30:55.215Z,7.40
2019-05-18T09:36:01.217Z,4.12
2019-05-18T09:41:07.400Z,6.85
2019-05-18T09:46:13.388Z,3.55
2019-05-18T09:51:19.423Z,5.05
2019-05-18T09:56:25.372Z,4.92
2019-05-18T10:01:31.441Z,5.05
2019-05-18T10:06:37.358Z,5.67
2019-05-18T10:11:43.507Z,4.72
2019-05-18T10:16:49.818Z,6.70
2019-05-18T10:21:55.767Z,6.67
2019-05-18T10:27:01.815Z,6.67
2019-05-18T10:32:09.627Z,7.67
2019-05-18T10:37:15.596Z,7.28
2019-05-18T10:42:21.589Z,7.12
2019-05-18T10:47:27.606Z,8.00
2019-05-18T10:52:33.505Z,8.80
2019-05-18T10:57:39.480Z,8.68
2019-05-18T11:02:45.483Z,9.75
2019-05-18T11:07:52.144Z,9.63
2019-05-18T11:12:58.310Z,9.00
2019-05-18T11:18:04.285Z,9.70
2019-05-18T11:23:11.270Z,9.80
2019-05-18T11:28:17.768Z,8.73
2019-05-18T11:33:25.067Z,10.68
2019-05-18T11:38:31.035Z,7.25
2019-05-18T11:43:37.321Z,7.22
2019-05-18T11:48:43.413Z,7.22
2019-05-18T11:53:57.828Z,7.10
2019-05-18T12:04:02.018Z,5.83
2019-05-18T12:09:08.295Z,6.62
2019-05-18T12:14:14.368Z,6.22
2019-05-18T12:19:20.453Z,5.17
2019-05-18T12:24:26.426Z,5.72
2019-05-18T12:29:32.491Z,6.20
2019-05-18T12:34:38.705Z,6.70
2019-05-18T12:39:45.044Z,7.53
2019-05-18T12:44:51.325Z,6.97
2019-05-18T12:49:57.290Z,8.08
2019-05-18T12:55:03.360Z,7.25
2019-05-18T13:00:15.494Z,6.25
2019-05-18T13:05:21.881Z,7.20
2019-05-18T13:10:28.344Z,7.05
2019-05-18T13:15:34.733Z,7.55
2019-05-18T13:20:40.712Z,6.20
2019-05-18T13:25:46.660Z,6.30
2019-05-18T13:30:52.924Z,6.75
2019-05-18T13:36:00.608Z,6.10
2019-05-18T13:41:06.830Z,7.10
2019-05-18T13:46:13.212Z,7.33
2019-05-18T13:51:19.282Z,7.03
2019-05-18T13:56:25.267Z,7.08
2019-05-18T14:01:31.432Z,6.70
2019-05-18T14:06:37.843Z,6.30
2019-05-18T14:11:43.802Z,7.05
2019-05-18T14:16:49.855Z,6.92
2019-05-18T14:21:55.829Z,6.78
2019-05-18T14:27:01.715Z,7.03
2019-05-18T14:32:10.830Z,6.50
2019-05-18T14:42:20.301Z,7.22
2019-05-18T14:47:27.640Z,7.12
2019-05-18T14:52:33.802Z,7.15
2019-05-18T14:57:39.869Z,6.58
2019-05-18T15:02:45.949Z,6.40
2019-05-18T15:07:52.002Z,6.50
2019-05-18T15:12:58.104Z,6.37
2019-05-18T15:18:04.097Z,5.80
2019-05-18T15:23:10.463Z,6.58
2019-05-18T15:28:16.726Z,6.95
2019-05-18T15:33:22.700Z,7.15
2019-05-18T15:38:28.662Z,7.25
2019-05-18T15:43:34.652Z,7.03
2019-05-18T15:48:40.735Z,7.42
2019-05-18T15:53:46.888Z,7.72
2019-05-18T15:58:52.749Z,7.62
2019-05-18T16:03:58.725Z,38.70
2019-05-18T16:09:06.037Z,41.53
2019-05-18T16:14:12.002Z,19.60
2019-05-18T16:19:18.245Z,16.15
2019-05-18T16:24:24.248Z,20.32
2019-05-18T16:29:30.237Z,14.47
2019-05-18T16:34:36.291Z,10.05
2019-05-18T16:39:42.386Z,10.53
2019-05-18T16:44:48.442Z,86.20
2019-05-18T16:49:54.425Z,46.50
2019-05-18T16:55:00.484Z,22.45
2019-05-18T17:00:16.174Z,19.67
2019-05-18T17:05:21.747Z,11.85
2019-05-18T17:10:27.818Z,52.15
2019-05-18T17:15:34.819Z,10.03
2019-05-18T17:20:43.138Z,22.13
2019-05-18T17:25:49.033Z,13.27
2019-05-18T17:30:55.287Z,21.65
2019-05-18T17:36:01.359Z,14.93
2019-05-18T17:41:07.466Z,28.40
2019-05-18T17:46:13.500Z,17.80
2019-05-18T17:51:19.886Z,25.48
2019-05-18T17:56:25.970Z,21.20
2019-05-18T18:01:32.134Z,55.23
2019-05-18T18:06:38.001Z,74.15
2019-05-18T18:11:44.074Z,34.85
2019-05-18T18:16:50.563Z,125.12
2019-05-18T18:21:57.720Z,113.40
2019-05-18T18:27:03.843Z,91.12
2019-05-18T18:32:09.950Z,106.10
2019-05-18T18:37:15.997Z,25.23
2019-05-18T18:42:22.174Z,15.88
2019-05-18T18:47:28.429Z,14.07
2019-05-18T18:52:34.501Z,10.13
2019-05-18T18:57:42.203Z,22.62
2019-05-18T19:02:48.596Z,13.08
2019-05-18T19:07:54.671Z,37.05
2019-05-18T19:13:00.992Z,19.90
2019-05-18T19:18:07.024Z,11.68
2019-05-18T19:23:13.198Z,15.78
2019-05-18T19:28:19.286Z,16.27
2019-05-18T19:33:25.344Z,17.05
2019-05-18T19:38:31.214Z,16.27
2019-05-18T19:43:37.212Z,13.45
2019-05-18T19:48:43.356Z,13.75
2019-05-18T19:53:49.636Z,12.82
2019-05-18T19:58:55.510Z,13.80
2019-05-18T20:04:01.582Z,14.15
2019-05-18T20:09:07.875Z,13.50
2019-05-18T20:14:13.935Z,13.62
2019-05-18T20:19:19.999Z,13.75
2019-05-18T20:24:26.228Z,12.73
2019-05-18T20:29:32.452Z,17.20
2019-05-18T20:34:38.423Z,16.40
2019-05-18T20:39:44.409Z,14.07
2019-05-18T20:44:50.467Z,14.53
2019-05-18T20:49:56.850Z,14.73
2019-05-18T20:55:02.936Z,16.70
2019-05-18T21:00:10.632Z,14.63
2019-05-18T21:05:18.246Z,16.95
2019-05-18T21:10:24.228Z,18.75
2019-05-18T21:15:30.286Z,18.92
2019-05-18T21:20:36.870Z,23.12
2019-05-18T21:25:42.946Z,20.40
2019-05-18T21:30:49.020Z,17.82
2019-05-18T21:35:55.002Z,16.05
2019-05-18T21:41:01.059Z,15.53
2019-05-18T21:46:07.135Z,15.58
2019-05-18T21:51:13.209Z,15.55
2019-05-18T21:56:19.250Z,20.02
2019-05-18T22:01:25.668Z,13.38
2019-05-18T22:06:31.740Z,12.35
2019-05-18T22:11:38.528Z,18.10
2019-05-18T22:16:44.496Z,15.88
2019-05-18T22:21:50.366Z,18.00
2019-05-18T22:26:56.291Z,19.30
2019-05-18T22:32:02.309Z,17.80
2019-05-18T22:37:08.380Z,17.80
2019-05-18T22:42:14.252Z,16.85
2019-05-18T22:47:20.321Z,17.07
2019-05-18T22:52:26.494Z,16.10
2019-05-18T22:57:32.570Z,18.02
2019-05-18T23:02:38.649Z,16.48
2019-05-18T23:07:44.762Z,18.98
2019-05-18T23:12:50.799Z,18.80
2019-05-18T23:17:56.861Z,23.70
2019-05-18T23:23:02.844Z,19.15
2019-05-18T23:28:08.937Z,18.57
2019-05-18T23:33:14.976Z,18.00
2019-05-18T23:38:20.809Z,16.85
2019-05-18T23:43:26.720Z,19.42
2019-05-18T23:48:32.693Z,19.80
2019-05-18T23:53:38.760Z,18.02
2019-05-18T23:58:44.635Z,20.43
